This is the latest recevied weather packets stored in our database for station/object AJ4FJ-13. If no packets are shown the sender has not sent any weather packets the latest 10 day(s).
| Time | Temp. | Humidity | Pressure | Rain* | Wind** | Luminosity | Snow |
|---|---|---|---|---|---|---|---|
| 1777750326 | 19.44° C | 35% | 1015 hPa | 0 mm | 4.47 m/s, 334° | - | - |
| 1777750326 | 20° C | 36% | 1015 hPa | 0 mm | 1.79 m/s, 335° | - | - |
| 1777750326 | 20° C | 35% | 1015 hPa | 0 mm | 3.13 m/s, 9° | - | - |
| 1777750036 | 20.56° C | 29% | 1015 hPa | 0 mm | 4.02 m/s, 351° | - | - |
| 1777748219 | 20.56° C | 32% | 1015 hPa | 0 mm | 3.13 m/s, 306° | - | - |
| 1777743683 | 20° C | 35% | 1015 hPa | 0 mm | 3.13 m/s, 9° | - | - |
| 1777743078 | 20° C | 36% | 1015 hPa | 0 mm | 1.79 m/s, 335° | - | - |
| 1777742776 | 19.44° C | 35% | 1015 hPa | 0 mm | 4.47 m/s, 334° | - | - |
| 1777740359 | 20° C | 37% | 1015 hPa | 0 mm | 2.68 m/s, 34° | - | - |
| 1777738539 | 18.89° C | 37% | 1014 hPa | 0 mm | 4.02 m/s, 5° | - | - |
| 1777738241 | 18.89° C | 37% | 1014 hPa | 0 mm | 4.02 m/s, 5° | - | - |
| 1777736732 | 18.89° C | 37% | 1014 hPa | 0 mm | 4.47 m/s, 21° | - | - |
| 1777730665 | 17.22° C | 47% | 1013 hPa | 0 mm | 2.24 m/s, 334° | - | - |
| 1777730359 | 17.22° C | 47% | 1013 hPa | 0 mm | 1.79 m/s, 356° | - | - |
| 1777728158 | 14.44° C | 54% | 1012 hPa | 0 mm | 2.24 m/s, 351° | - | - |
| 1777727937 | 14.44° C | 54% | 1012 hPa | 0 mm | 2.24 m/s, 351° | - | - |
| 1777727636 | 14.44° C | 55% | 1012 hPa | 0 mm | 1.79 m/s, 195° | - | - |
| 1777727330 | 14.44° C | 56% | 1012 hPa | 0 mm | 2.24 m/s, 351° | - | - |
| 1777725823 | 13.89° C | 57% | 1012 hPa | 0 mm | 1.79 m/s, 318° | - | - |
| 1777723706 | 12.78° C | 57% | 1012 hPa | 0 mm | 0 m/s | - | - |
| 1777723399 | 12.78° C | 58% | 1011 hPa | 0 mm | 2.24 m/s, 0° | - | - |
| 1777722193 | 12.78° C | 58% | 1012 hPa | 0 mm | 0 m/s | - | - |
| 1777721290 | 12.78° C | 57% | 1012 hPa | 0 mm | 0 m/s | - | - |
| 1777720385 | 12.78° C | 56% | 1011 hPa | 0 mm | 1.79 m/s, 351° | - | - |
| 1777720082 | 12.78° C | 56% | 1011 hPa | 0 mm | 1.79 m/s, 337° | - | - |
* Rain latest hour (hover to see other rain measurements)
** Current wind speed in m/s (hover to see current wind gust speed)